Time;durP1;ratioP1;P1;durP2;ratioP2;P2;SDS_P1;SDS_P2;PMS_P1;PMS_P2;Temp;Humidity;BMP_temperature;BMP_pressure;BME280_temperature;BME280_humidity;BME280_pressure;Samples;Min_cycle;Max_cycle;Signal;HPM_P1;HPM_P2
2024/04/08 00:00:40;;;;;;;3.13;1.60;;;15.30;99.90;;;;;;4994627;28;20193;-81
2024/04/08 00:03:05;;;;;;;3.07;1.50;;;15.30;99.90;;;;;;4994548;28;20532;-81
2024/04/08 00:05:31;;;;;;;3.30;1.73;;;15.30;99.90;;;;;;4994374;28;20196;-80
2024/04/08 00:07:57;;;;;;;3.00;1.70;;;15.30;99.90;;;;;;4993919;28;20240;-80
2024/04/08 00:10:22;;;;;;;4.03;1.77;;;15.30;99.90;;;;;;4994531;28;20634;-80
2024/04/08 00:12:48;;;;;;;6.43;1.93;;;15.30;99.90;;;;;;4994473;28;20187;-80
2024/04/08 00:15:14;;;;;;;4.77;1.87;;;15.40;99.90;;;;;;4994222;28;20193;-80
2024/04/08 00:17:44;;;;;;;5.07;2.03;;;15.50;99.90;;;;;;4993910;28;20594;-80
2024/04/08 00:20:11;;;;;;;6.13;1.87;;;15.60;99.90;;;;;;4993998;28;20262;-79
2024/04/08 00:22:38;;;;;;;4.53;1.90;;;15.60;99.90;;;;;;4994085;28;20176;-82
2024/04/08 00:25:13;;;;;;;3.80;2.07;;;15.50;99.90;;;;;;4994091;28;20163;-80
2024/04/08 00:27:38;;;;;;;4.13;2.20;;;15.40;99.90;;;;;;4994162;28;20170;-80
2024/04/08 00:30:05;;;;;;;3.03;1.77;;;15.40;99.90;;;;;;4994743;28;20177;-80
2024/04/08 00:32:31;;;;;;;4.97;1.73;;;15.50;99.90;;;;;;4995042;28;20169;-81
2024/04/08 00:34:56;;;;;;;5.00;1.63;;;15.40;99.90;;;;;;4993957;28;20305;-81
2024/04/08 00:37:22;;;;;;;3.23;1.53;;;15.40;99.90;;;;;;4993808;28;20305;-80
2024/04/08 00:39:48;;;;;;;4.50;2.07;;;15.50;99.90;;;;;;4993914;28;20183;-79
2024/04/08 00:42:13;;;;;;;3.33;2.00;;;15.40;99.90;;;;;;4993919;28;20167;-79
2024/04/08 00:44:39;;;;;;;3.87;1.90;;;15.40;99.90;;;;;;5001082;28;20498;-80
2024/04/08 00:47:05;;;;;;;4.37;1.70;;;15.30;99.90;;;;;;5011799;28;20671;-83
2024/04/08 00:49:32;;;;;;;4.57;1.93;;;15.30;99.90;;;;;;5013198;28;20642;-82
2024/04/08 00:51:58;;;;;;;4.80;1.70;;;15.20;99.90;;;;;;5013522;28;20667;-80
2024/04/08 00:54:25;;;;;;;4.43;1.70;;;15.10;99.90;;;;;;5013233;28;20168;-80
2024/04/08 00:56:54;;;;;;;4.23;2.37;;;15.00;99.90;;;;;;5013359;28;20651;-83
2024/04/08 00:59:21;;;;;;;4.67;2.00;;;15.00;99.90;;;;;;5044939;28;20631;-80
2024/04/08 01:01:49;;;;;;;4.53;2.13;;;15.10;99.90;;;;;;5012799;28;20209;-78
2024/04/08 01:04:14;;;;;;;4.67;2.40;;;15.20;99.90;;;;;;5044595;28;20179;-79
2024/04/08 01:06:41;;;;;;;4.60;1.83;;;15.10;99.90;;;;;;5013328;28;20261;-80
2024/04/08 01:09:08;;;;;;;5.13;2.40;;;15.30;99.90;;;;;;5013274;28;20169;-84
2024/04/08 01:11:35;;;;;;;4.40;1.80;;;15.20;99.90;;;;;;5013409;28;20181;-79
2024/04/08 01:14:00;;;;;;;7.33;2.63;;;15.30;99.90;;;;;;5014916;28;20174;-80
2024/04/08 01:16:26;;;;;;;4.03;1.80;;;15.30;99.90;;;;;;5013049;28;20217;-80
2024/04/08 01:18:52;;;;;;;3.93;1.83;;;15.30;99.90;;;;;;5012788;28;20172;-79
2024/04/08 01:21:18;;;;;;;4.57;2.00;;;15.30;99.90;;;;;;5013044;28;20182;-80
2024/04/08 01:23:44;;;;;;;3.37;1.77;;;15.20;99.90;;;;;;5044670;28;20203;-81
2024/04/08 01:26:10;;;;;;;3.37;1.90;;;15.20;99.90;;;;;;5044596;28;20190;-79
2024/04/08 01:28:38;;;;;;;4.80;1.87;;;15.20;99.90;;;;;;5011532;28;20183;-80
2024/04/08 01:31:04;;;;;;;3.43;1.70;;;15.10;99.90;;;;;;5012621;28;20247;-81
2024/04/08 01:33:33;;;;;;;3.90;1.73;;;15.20;99.90;;;;;;5011655;28;20601;-79
2024/04/08 01:36:03;;;;;;;3.37;1.53;;;15.40;99.90;;;;;;5012490;28;20268;-79
2024/04/08 01:38:37;;;;;;;3.00;1.67;;;15.50;99.90;;;;;;5012634;28;20174;-81
2024/04/08 01:41:03;;;;;;;5.10;1.90;;;15.50;99.90;;;;;;5012671;28;20253;-79
2024/04/08 01:43:28;;;;;;;5.03;1.87;;;15.60;99.90;;;;;;5012692;28;20250;-80
2024/04/08 01:45:54;;;;;;;4.83;1.67;;;15.50;99.90;;;;;;5012260;28;20638;-79
2024/04/08 01:48:20;;;;;;;4.30;2.20;;;15.60;99.90;;;;;;5012733;28;20247;-80
2024/04/08 01:50:46;;;;;;;2.97;1.90;;;15.40;99.90;;;;;;5012538;28;20532;-79
2024/04/08 01:53:11;;;;;;;3.77;1.80;;;15.20;99.90;;;;;;5012589;28;20224;-79
2024/04/08 01:55:37;;;;;;;2.40;1.47;;;15.00;99.90;;;;;;5012287;28;20183;-79
2024/04/08 01:58:03;;;;;;;3.63;1.90;;;14.90;99.90;;;;;;5012402;28;20198;-79
2024/04/08 02:00:29;;;;;;;2.97;1.50;;;14.90;99.90;;;;;;5012180;28;20205;-78
2024/04/08 02:02:55;;;;;;;3.10;1.73;;;14.80;99.90;;;;;;5012428;28;20619;-78
2024/04/08 02:05:20;;;;;;;4.10;1.70;;;14.90;99.90;;;;;;5012235;28;20186;-79
2024/04/08 02:07:46;;;;;;;4.10;1.83;;;14.90;99.90;;;;;;5012244;28;20171;-80
2024/04/08 02:10:12;;;;;;;5.23;1.70;;;14.90;99.90;;;;;;5012378;28;20258;-81
2024/04/08 02:12:38;;;;;;;3.80;1.90;;;14.90;99.90;;;;;;5012282;28;20191;-79
2024/04/08 02:15:04;;;;;;;4.07;1.90;;;14.90;99.90;;;;;;5011065;28;20667;-79
2024/04/08 02:17:30;;;;;;;3.03;1.50;;;14.90;99.90;;;;;;5012378;28;20256;-78
2024/04/08 02:19:58;;;;;;;5.00;1.80;;;15.10;99.90;;;;;;5012576;28;20176;-79
2024/04/08 02:22:24;;;;;;;5.50;1.93;;;15.10;99.90;;;;;;5012548;28;20176;-80
2024/04/08 02:24:50;;;;;;;3.87;2.00;;;15.10;99.90;;;;;;5010893;28;20667;-79
2024/04/08 02:27:15;;;;;;;3.57;1.90;;;15.20;99.90;;;;;;5012014;28;20171;-78
2024/04/08 02:29:42;;;;;;;5.33;2.20;;;15.10;99.90;;;;;;5012988;28;20166;-84
2024/04/08 02:32:08;;;;;;;4.07;2.20;;;15.20;99.90;;;;;;5016227;28;20178;-80
2024/04/08 02:34:34;;;;;;;3.87;2.13;;;15.00;99.90;;;;;;5014703;28;20261;-79
2024/04/08 02:36:59;;;;;;;4.83;2.00;;;15.00;99.90;;;;;;5015814;28;20303;-79
2024/04/08 02:39:25;;;;;;;3.13;1.87;;;15.00;99.90;;;;;;5016129;28;20525;-79
2024/04/08 02:41:51;;;;;;;3.73;1.97;;;15.00;99.90;;;;;;5015351;28;20627;-79
2024/04/08 02:44:16;;;;;;;5.00;2.10;;;15.00;99.90;;;;;;5015688;28;20180;-81
2024/04/08 02:46:42;;;;;;;3.00;2.10;;;15.00;99.90;;;;;;5015684;28;20258;-79
2024/04/08 02:49:08;;;;;;;3.87;2.20;;;14.90;99.90;;;;;;5015489;28;20178;-80
2024/04/08 02:51:34;;;;;;;4.83;2.00;;;15.00;99.90;;;;;;5015787;28;20606;-79
2024/04/08 02:54:00;;;;;;;3.30;1.90;;;15.10;99.90;;;;;;5047347;28;20174;-80
2024/04/08 02:56:25;;;;;;;5.37;2.10;;;15.20;99.90;;;;;;5013901;28;20209;-79
2024/04/08 02:58:51;;;;;;;5.53;1.97;;;15.30;99.90;;;;;;5014068;28;20170;-80
2024/04/08 03:01:16;;;;;;;4.80;2.80;;;15.30;99.90;;;;;;5014159;28;20543;-81
2024/04/08 03:03:42;;;;;;;5.17;2.20;;;15.40;99.90;;;;;;5015208;28;20632;-79
2024/04/08 03:06:12;;;;;;;3.60;2.00;;;15.40;99.90;;;;;;5015124;28;20186;-79
2024/04/08 03:08:40;;;;;;;4.83;2.17;;;15.50;99.90;;;;;;5014973;28;20180;-81
2024/04/08 03:11:06;;;;;;;3.97;2.10;;;15.40;99.90;;;;;;5015144;28;20616;-79
2024/04/08 03:13:33;;;;;;;3.23;2.00;;;15.40;99.90;;;;;;5015161;28;20194;-80
2024/04/08 03:15:59;;;;;;;2.20;1.60;;;15.30;99.90;;;;;;5015085;28;20226;-78
2024/04/08 03:18:24;;;;;;;3.73;1.90;;;15.30;99.90;;;;;;5014991;28;20266;-78
2024/04/08 03:21:04;;;;;;;2.93;1.67;;;15.30;99.90;;;;;;5014965;28;20171;-80
2024/04/08 03:23:30;;;;;;;4.93;2.10;;;15.20;99.90;;;;;;5015012;28;20178;-80
2024/04/08 03:26:03;;;;;;;3.67;1.83;;;15.20;99.90;;;;;;5014562;28;20174;-79
2024/04/08 03:28:29;;;;;;;4.27;1.80;;;15.10;99.90;;;;;;5014653;28;20167;-78
2024/04/08 03:30:56;;;;;;;3.20;1.50;;;15.00;99.90;;;;;;5014964;28;20229;-80
2024/04/08 03:33:23;;;;;;;3.70;2.00;;;15.00;99.90;;;;;;5015074;28;20174;-81
2024/04/08 03:35:49;;;;;;;4.40;1.80;;;15.10;99.90;;;;;;5015001;28;20308;-80
2024/04/08 03:38:15;;;;;;;5.30;1.80;;;15.00;99.90;;;;;;5014193;28;20190;-79
2024/04/08 03:40:42;;;;;;;3.60;1.47;;;15.00;99.90;;;;;;5013842;28;20202;-79
2024/04/08 03:43:08;;;;;;;3.93;2.10;;;15.10;99.90;;;;;;5045510;28;20221;-80
2024/04/08 03:45:34;;;;;;;4.43;1.80;;;15.10;99.90;;;;;;5014655;28;20170;-80
2024/04/08 03:48:00;;;;;;;2.27;1.83;;;15.10;99.90;;;;;;5014245;28;20227;-79
2024/04/08 03:50:35;;;;;;;3.83;1.80;;;15.10;99.90;;;;;;5014354;28;20198;-79
2024/04/08 03:53:01;;;;;;;3.80;1.80;;;15.20;99.90;;;;;;5013891;28;20179;-79
2024/04/08 03:55:28;;;;;;;3.70;1.90;;;15.20;99.90;;;;;;5013882;28;20167;-78
2024/04/08 03:57:54;;;;;;;3.67;1.93;;;15.20;99.90;;;;;;5014115;28;20241;-80
2024/04/08 04:00:20;;;;;;;3.73;2.10;;;15.00;99.90;;;;;;5046097;28;20198;-79
2024/04/08 04:02:46;;;;;;;3.17;1.80;;;15.00;99.90;;;;;;5014036;28;20594;-80
2024/04/08 04:05:12;;;;;;;4.07;1.97;;;14.90;99.90;;;;;;5045687;28;20280;-79
2024/04/08 04:07:38;;;;;;;4.30;1.93;;;14.90;99.90;;;;;;5013945;28;20179;-79
2024/04/08 04:10:04;;;;;;;4.30;1.90;;;15.00;99.90;;;;;;5013295;28;20266;-81
2024/04/08 04:12:33;;;;;;;2.87;2.03;;;15.10;99.90;;;;;;5013951;28;20190;-79
2024/04/08 04:15:00;;;;;;;4.97;2.30;;;15.10;99.90;;;;;;5013937;28;20170;-79
2024/04/08 04:17:26;;;;;;;5.03;1.73;;;15.00;99.90;;;;;;5014026;28;20225;-79
2024/04/08 04:19:52;;;;;;;3.33;2.07;;;14.90;99.90;;;;;;5012548;28;20623;-78
2024/04/08 04:22:17;;;;;;;2.07;1.53;;;14.70;99.90;;;;;;5013016;28;20594;-82
2024/04/08 04:24:43;;;;;;;4.63;2.50;;;14.50;99.90;;;;;;5013225;28;20711;-79
2024/04/08 04:27:09;;;;;;;2.60;2.00;;;14.40;99.90;;;;;;5013586;28;20631;-79
2024/04/08 04:29:35;;;;;;;4.87;2.23;;;14.40;99.90;;;;;;5013702;28;20171;-80
2024/04/08 04:32:00;;;;;;;5.03;2.40;;;14.40;99.90;;;;;;5013570;28;20540;-79
2024/04/08 04:34:26;;;;;;;4.03;2.40;;;14.40;99.90;;;;;;5013237;28;20649;-80
2024/04/08 04:36:52;;;;;;;5.57;2.00;;;14.30;99.90;;;;;;5013475;28;20224;-79
2024/04/08 04:39:17;;;;;;;4.73;2.10;;;14.30;99.90;;;;;;5013131;28;20175;-78
2024/04/08 04:41:43;;;;;;;5.17;1.97;;;14.40;99.90;;;;;;5013533;28;20624;-77
2024/04/08 04:44:09;;;;;;;4.67;2.57;;;14.50;99.90;;;;;;5013267;28;20580;-81
2024/04/08 04:46:34;;;;;;;4.77;2.73;;;14.70;99.90;;;;;;5013388;28;20634;-78
2024/04/08 04:49:00;;;;;;;6.30;2.47;;;14.70;99.90;;;;;;5013086;28;20182;-80
2024/04/08 04:51:26;;;;;;;5.03;3.07;;;14.80;99.90;;;;;;5012907;28;20189;-78
2024/04/08 04:53:52;;;;;;;5.70;2.57;;;14.80;99.90;;;;;;5012607;28;20174;-79
2024/04/08 04:56:17;;;;;;;6.23;3.20;;;14.80;99.90;;;;;;5013271;28;20562;-79
2024/04/08 04:58:43;;;;;;;5.77;2.77;;;14.80;99.90;;;;;;5012873;28;20698;-79
2024/04/08 05:01:09;;;;;;;5.73;3.10;;;14.70;99.90;;;;;;5012795;28;20581;-80
2024/04/08 05:03:35;;;;;;;5.60;3.00;;;14.80;99.90;;;;;;5011349;28;20701;-79
2024/04/08 05:06:00;;;;;;;4.30;2.63;;;14.80;99.90;;;;;;5012761;28;20186;-79
2024/04/08 05:08:26;;;;;;;5.07;2.53;;;14.70;99.90;;;;;;5014516;28;20170;-80
2024/04/08 05:10:52;;;;;;;5.77;2.60;;;14.60;99.90;;;;;;5013868;28;20178;-80
2024/04/08 05:13:18;;;;;;;4.97;2.77;;;14.50;99.90;;;;;;5013213;28;20198;-78
2024/04/08 05:16:00;;;;;;;4.73;2.73;;;14.50;99.90;;;;;;5011216;28;20270;-78
2024/04/08 05:18:26;;;;;;;4.47;2.43;;;14.50;99.90;;;;;;5012871;28;20190;-79
2024/04/08 05:20:52;;;;;;;5.80;3.00;;;14.50;99.90;;;;;;5012502;28;20194;-79
2024/04/08 05:23:21;;;;;;;5.50;3.00;;;14.50;99.90;;;;;;5043979;28;20185;-80
2024/04/08 05:25:47;;;;;;;5.77;2.90;;;14.50;99.90;;;;;;5012592;28;20173;-79
2024/04/08 05:28:13;;;;;;;5.57;2.90;;;14.60;99.90;;;;;;5044403;28;20188;-79
2024/04/08 05:30:40;;;;;;;6.33;3.00;;;14.50;99.90;;;;;;5012738;28;20184;-80
2024/04/08 05:33:07;;;;;;;7.03;3.10;;;14.50;99.90;;;;;;5012607;28;20634;-80
2024/04/08 05:35:33;;;;;;;6.43;3.50;;;14.40;99.90;;;;;;5012197;28;20194;-80
2024/04/08 05:37:58;;;;;;;7.27;3.23;;;14.50;99.90;;;;;;5012139;28;20221;-78
2024/04/08 05:40:24;;;;;;;5.10;3.27;;;14.50;99.90;;;;;;5012284;28;20572;-79
2024/04/08 05:42:51;;;;;;;5.10;2.73;;;14.60;99.90;;;;;;5012252;28;20166;-79
2024/04/08 05:45:17;;;;;;;4.30;3.10;;;14.60;99.90;;;;;;5012292;28;20185;-81
2024/04/08 05:47:42;;;;;;;16.03;12.23;;;14.70;99.90;;;;;;5012339;28;20167;-80
2024/04/08 05:50:08;;;;;;;6.50;4.40;;;14.70;99.90;;;;;;5012067;28;20233;-79
2024/04/08 05:52:34;;;;;;;6.97;4.07;;;14.60;99.90;;;;;;5012400;28;20166;-80
2024/04/08 05:55:00;;;;;;;6.23;4.20;;;14.70;99.90;;;;;;5011926;28;20178;-81
2024/04/08 05:57:26;;;;;;;5.83;3.90;;;14.70;99.90;;;;;;5011523;28;20209;-80
2024/04/08 05:59:52;;;;;;;6.77;3.93;;;14.80;99.90;;;;;;5012143;28;20166;-80
2024/04/08 06:02:18;;;;;;;6.50;3.63;;;14.80;99.90;;;;;;5011919;28;20511;-80
2024/04/08 06:04:44;;;;;;;6.60;3.80;;;14.80;99.90;;;;;;5011145;28;20186;-78
2024/04/08 06:07:10;;;;;;;7.40;3.80;;;15.00;99.90;;;;;;5015985;28;20210;-80
2024/04/08 06:09:36;;;;;;;6.80;3.77;;;15.00;99.90;;;;;;5016094;28;20584;-79
2024/04/08 06:12:02;;;;;;;7.63;3.67;;;15.00;99.90;;;;;;5015813;28;20257;-78
2024/04/08 06:14:27;;;;;;;9.20;4.20;;;15.00;99.90;;;;;;5016012;28;20170;-79
2024/04/08 06:16:53;;;;;;;9.93;4.47;;;15.00;99.90;;;;;;5015781;28;20260;-78
2024/04/08 06:19:19;;;;;;;7.33;4.60;;;15.10;99.90;;;;;;5014449;28;20209;-79
2024/04/08 06:21:45;;;;;;;8.47;4.97;;;15.10;99.90;;;;;;5015587;28;20170;-80
2024/04/08 06:24:11;;;;;;;9.50;4.30;;;15.20;99.90;;;;;;5015652;28;20216;-78
2024/04/08 06:26:37;;;;;;;10.10;4.70;;;15.30;99.90;;;;;;5015850;28;20671;-80
2024/04/08 06:29:02;;;;;;;11.13;4.83;;;15.30;99.90;;;;;;5016385;28;20190;-78
2024/04/08 06:31:29;;;;;;;8.83;4.93;;;15.40;99.90;;;;;;5015850;28;20170;-79
2024/04/08 06:33:55;;;;;;;7.70;4.03;;;15.50;99.90;;;;;;5015324;28;20623;-79
2024/04/08 06:36:22;;;;;;;7.23;4.40;;;15.60;99.90;;;;;;5015490;28;20198;-78
2024/04/08 06:38:48;;;;;;;7.77;4.60;;;15.60;99.60;;;;;;5015245;28;20185;-81
2024/04/08 06:41:15;;;;;;;7.97;4.47;;;15.60;99.30;;;;;;5015376;28;20487;-78
2024/04/08 06:43:44;;;;;;;7.30;4.40;;;15.80;98.50;;;;;;5015135;28;20257;-79
2024/04/08 06:46:09;;;;;;;7.87;4.10;;;15.80;96.70;;;;;;5014556;28;20217;-78
2024/04/08 06:48:36;;;;;;;7.80;4.13;;;15.90;95.40;;;;;;5014808;28;20171;-79
2024/04/08 06:51:03;;;;;;;6.13;3.77;;;15.90;93.80;;;;;;5015375;28;20643;-83
2024/04/08 06:53:28;;;;;;;8.53;4.63;;;16.00;92.40;;;;;;5014851;28;20188;-80
2024/04/08 06:55:54;;;;;;;9.07;3.97;;;16.00;92.80;;;;;;5015117;28;20702;-80
2024/04/08 06:58:20;;;;;;;6.33;3.60;;;16.10;92.90;;;;;;5015013;28;20209;-80
2024/04/08 07:00:47;;;;;;;8.57;3.97;;;16.10;91.00;;;;;;5015427;28;20205;-79
2024/04/08 07:03:13;;;;;;;8.37;3.57;;;16.10;90.00;;;;;;5046603;28;20178;-83
2024/04/08 07:05:40;;;;;;;6.30;3.53;;;16.10;87.50;;;;;;5014827;28;20244;-78
2024/04/08 07:08:07;;;;;;;5.57;3.00;;;16.10;83.00;;;;;;5015181;28;20174;-84
2024/04/08 07:10:35;;;;;;;4.77;2.60;;;16.10;83.10;;;;;;5015794;28;20204;-79
2024/04/08 07:13:01;;;;;;;4.80;2.60;;;16.20;75.10;;;;;;5014675;28;20213;-80
2024/04/08 07:15:27;;;;;;;5.43;2.30;;;16.20;69.70;;;;;;5012373;28;20178;-82
2024/04/08 07:17:53;;;;;;;7.40;4.23;;;16.10;72.70;;;;;;5014332;28;20215;-82
2024/04/08 07:20:19;;;;;;;5.47;2.80;;;16.20;73.00;;;;;;5015176;28;20230;-80
2024/04/08 07:22:45;;;;;;;5.00;2.43;;;16.40;71.40;;;;;;5013375;28;20539;-80
2024/04/08 07:25:11;;;;;;;4.80;2.43;;;16.60;65.40;;;;;;5014579;28;20693;-79
2024/04/08 07:27:37;;;;;;;4.57;2.50;;;16.70;61.10;;;;;;5014502;28;20306;-79
2024/04/08 07:30:04;;;;;;;4.20;2.17;;;16.90;56.90;;;;;;5008254;28;20183;-78
2024/04/08 07:32:30;;;;;;;4.07;2.23;;;16.90;52.30;;;;;;5002583;28;20274;-79
2024/04/08 07:34:56;;;;;;;5.87;2.23;;;16.90;51.20;;;;;;5025997;28;20175;-79
2024/04/08 07:37:22;;;;;;;3.47;2.03;;;17.10;48.80;;;;;;4993564;28;20221;-80
2024/04/08 07:39:49;;;;;;;8.17;2.40;;;17.30;46.10;;;;;;4994815;28;20175;-79
2024/04/08 07:42:15;;;;;;;5.30;2.20;;;17.50;41.00;;;;;;4995024;28;20175;-80
2024/04/08 07:44:41;;;;;;;3.83;2.37;;;17.50;36.50;;;;;;4994821;28;20175;-80
2024/04/08 07:47:07;;;;;;;6.33;2.77;;;17.70;32.20;;;;;;4994693;28;20697;-84
2024/04/08 07:49:32;;;;;;;5.40;2.57;;;17.80;29.60;;;;;;4994524;28;20174;-79
2024/04/08 07:51:58;;;;;;;5.83;2.53;;;17.80;26.60;;;;;;4994958;28;20185;-79
2024/04/08 07:54:24;;;;;;;7.93;2.77;;;17.90;24.10;;;;;;4994413;28;20642;-80
2024/04/08 07:56:49;;;;;;;4.10;2.40;;;17.80;24.80;;;;;;5025892;28;20698;-79
2024/04/08 07:59:15;;;;;;;4.53;2.23;;;17.60;28.70;;;;;;4994418;28;20174;-79
2024/04/08 08:01:41;;;;;;;3.40;2.33;;;17.60;28.10;;;;;;4994319;28;20167;-80
2024/04/08 08:04:06;;;;;;;8.23;2.40;;;17.80;24.40;;;;;;4994288;28;20225;-78
2024/04/08 08:06:32;;;;;;;4.73;2.23;;;17.50;29.20;;;;;;4994297;28;20637;-81
2024/04/08 08:08:58;;;;;;;7.70;2.50;;;17.40;34.40;;;;;;4994095;28;20200;-79
2024/04/08 08:11:23;;;;;;;3.20;2.00;;;17.30;38.50;;;;;;4994111;28;20164;-80
2024/04/08 08:13:49;;;;;;;4.93;1.90;;;17.30;38.70;;;;;;4993869;28;20257;-79
2024/04/08 08:16:15;;;;;;;4.53;2.00;;;17.30;41.30;;;;;;4993868;28;20259;-80
2024/04/08 08:18:41;;;;;;;4.67;2.17;;;17.30;42.40;;;;;;5025397;28;20276;-81
2024/04/08 08:21:07;;;;;;;5.70;2.27;;;17.30;40.50;;;;;;4994069;28;20289;-83
2024/04/08 08:23:32;;;;;;;4.63;2.13;;;17.20;42.80;;;;;;5025181;28;20266;-79
2024/04/08 08:26:00;;;;;;;5.53;2.17;;;17.20;44.20;;;;;;4993726;28;20263;-81
2024/04/08 08:28:25;;;;;;;3.07;1.80;;;17.50;41.40;;;;;;4993321;28;20173;-79
2024/04/08 08:30:52;;;;;;;7.13;1.90;;;17.60;37.90;;;;;;4993724;28;20191;-80
2024/04/08 08:33:20;;;;;;;5.33;2.47;;;17.70;32.30;;;;;;4994187;28;20172;-79
2024/04/08 08:35:46;;;;;;;4.07;2.00;;;17.70;32.10;;;;;;5008601;28;20179;-81
2024/04/08 08:38:12;;;;;;;6.27;2.30;;;17.80;31.90;;;;;;4993672;28;20710;-79
2024/04/08 08:40:42;;;;;;;5.77;2.33;;;18.00;29.90;;;;;;5025224;28;20265;-80
2024/04/08 08:43:08;;;;;;;6.47;2.43;;;18.20;24.40;;;;;;4993653;28;20195;-80
2024/04/08 08:45:36;;;;;;;4.47;1.97;;;18.50;20.30;;;;;;5024660;28;20171;-81
2024/04/08 08:48:03;;;;;;;5.47;2.30;;;18.60;19.70;;;;;;4993469;28;20201;-79
2024/04/08 08:50:29;;;;;;;4.27;2.07;;;18.60;19.70;;;;;;4993526;28;20796;-82
2024/04/08 08:52:55;;;;;;;6.20;2.33;;;18.50;17.40;;;;;;5025246;28;20612;-82
2024/04/08 08:55:24;;;;;;;5.33;2.60;;;18.50;18.40;;;;;;4993027;28;20179;-79
2024/04/08 08:57:53;;;;;;;4.97;2.07;;;18.50;15.30;;;;;;4993395;28;20233;-80
2024/04/08 09:00:19;;;;;;;5.17;2.57;;;18.50;18.60;;;;;;4992975;28;20256;-80
2024/04/08 09:02:45;;;;;;;5.67;2.13;;;18.40;20.60;;;;;;5024634;28;20641;-78
2024/04/08 09:05:11;;;;;;;5.30;2.33;;;18.60;19.30;;;;;;4992080;28;20293;-79
2024/04/08 09:07:36;;;;;;;5.27;2.03;;;18.70;16.40;;;;;;4993164;28;20264;-79
2024/04/08 09:10:02;;;;;;;5.07;2.67;;;18.80;15.40;;;;;;4992924;28;20694;-81
2024/04/08 09:12:28;;;;;;;6.67;2.40;;;18.90;15.30;;;;;;4993128;28;20239;-81
2024/04/08 09:14:54;;;;;;;5.30;2.50;;;19.00;15.10;;;;;;4992788;28;20166;-82
2024/04/08 09:17:21;;;;;;;5.47;2.50;;;19.20;12.50;;;;;;4993004;28;20230;-79
2024/04/08 09:19:47;;;;;;;6.10;2.10;;;19.50;11.70;;;;;;5024648;28;20172;-80
2024/04/08 09:22:16;;;;;;;4.30;2.17;;;19.60;3.80;;;;;;4993125;28;20181;-81
2024/04/08 09:24:42;;;;;;;6.30;2.47;;;19.20;7.00;;;;;;4992960;28;20621;-82
2024/04/08 09:27:09;;;;;;;3.50;1.97;;;19.10;13.30;;;;;;4993167;28;20658;-81
2024/04/08 09:29:34;;;;;;;6.03;2.87;;;18.90;14.00;;;;;;4993005;28;20173;-82
2024/04/08 09:32:00;;;;;;;5.53;2.73;;;18.80;16.20;;;;;;4992568;28;20178;-80
2024/04/08 09:34:29;;;;;;;7.63;2.80;;;18.90;16.90;;;;;;4992676;28;20185;-80
2024/04/08 09:36:55;;;;;;;4.93;2.27;;;19.00;15.70;;;;;;4992940;28;20217;-81
2024/04/08 09:39:22;;;;;;;3.80;2.30;;;19.10;14.60;;;;;;4992988;28;20173;-81
2024/04/08 09:41:53;;;;;;;6.23;2.97;;;19.10;16.20;;;;;;4992820;28;20583;-79
2024/04/08 09:44:20;;;;;;;5.53;2.93;;;19.10;17.70;;;;;;4992565;28;20583;-79
2024/04/08 09:46:46;;;;;;;5.07;2.73;;;19.00;19.40;;;;;;4992530;28;20209;-80
2024/04/08 09:49:12;;;;;;;9.67;3.40;;;19.00;19.90;;;;;;4992749;28;20173;-80
2024/04/08 09:51:42;;;;;;;5.50;3.03;;;19.10;20.80;;;;;;4992765;28;20181;-80
2024/04/08 09:54:08;;;;;;;5.00;3.10;;;19.30;18.00;;;;;;4992624;28;20589;-79
2024/04/08 09:56:38;;;;;;;5.30;2.67;;;19.50;16.10;;;;;;4992831;28;20191;-79
2024/04/08 09:59:31;;;;;;;7.33;2.60;;;19.70;10.90;;;;;;4992970;28;20593;-79
2024/04/08 10:01:58;;;;;;;5.43;2.50;;;19.70;7.70;;;;;;4992786;28;20318;-81
2024/04/08 10:04:25;;;;;;;5.87;2.50;;;19.50;9.40;;;;;;4992241;28;20182;-80
2024/04/08 10:06:55;;;;;;;5.17;2.30;;;19.50;10.50;;;;;;4992724;28;20229;-79
2024/04/08 10:09:21;;;;;;;4.27;2.37;;;19.40;11.20;;;;;;4992810;28;20167;-80
2024/04/08 10:11:50;;;;;;;4.90;2.60;;;19.50;13.00;;;;;;4992075;28;20337;-79
2024/04/08 10:14:20;;;;;;;4.70;2.40;;;19.60;9.90;;;;;;4992191;28;20579;-81
2024/04/08 10:16:50;;;;;;;6.57;2.73;;;19.90;8.50;;;;;;4991124;28;20686;-81
2024/04/08 10:19:19;;;;;;;5.77;2.40;;;20.10;4.60;;;;;;4992302;28;20172;-80
2024/04/08 10:21:46;;;;;;;3.80;2.07;;;20.40;1.40;;;;;;4992332;28;20175;-80
2024/04/08 10:24:35;;;;;;;4.83;2.20;;;20.30;1.00;;;;;;5023469;28;20187;-80
2024/04/08 10:27:03;;;;;;;4.70;2.10;;;20.40;1.00;;;;;;4991901;28;20176;-79
2024/04/08 10:29:31;;;;;;;5.73;2.07;;;20.20;1.00;;;;;;4992313;28;20294;-81
2024/04/08 10:31:57;;;;;;;5.43;2.10;;;20.10;1.00;;;;;;4995216;28;20175;-80
2024/04/08 10:34:24;;;;;;;5.47;1.93;;;20.00;1.00;;;;;;4999377;28;20297;-81
2024/04/08 10:36:50;;;;;;;4.83;2.03;;;20.00;2.40;;;;;;4992062;28;20747;-80
2024/04/08 10:39:26;;;;;;;5.50;2.10;;;20.00;1.00;;;;;;4992447;28;20320;-80
2024/04/08 10:41:53;;;;;;;6.87;1.93;;;20.00;2.20;;;;;;5024137;28;20178;-79
2024/04/08 10:44:19;;;;;;;3.97;2.10;;;20.20;1.00;;;;;;4996675;28;20183;-78
2024/04/08 10:46:45;;;;;;;4.47;1.93;;;20.30;1.00;;;;;;4992927;28;20172;-80
2024/04/08 10:49:11;;;;;;;3.97;1.80;;;20.20;1.00;;;;;;5023311;28;20588;-78
2024/04/08 10:51:37;;;;;;;5.40;2.20;;;20.40;1.00;;;;;;4994073;28;20173;-80
2024/04/08 10:54:02;;;;;;;5.63;1.83;;;20.60;1.00;;;;;;4995588;28;20218;-78
2024/04/08 10:56:28;;;;;;;5.83;2.03;;;20.60;1.00;;;;;;5026711;28;20207;-80
2024/04/08 10:58:54;;;;;;;4.80;2.40;;;20.30;1.00;;;;;;4995368;28;20183;-79
2024/04/08 11:01:20;;;;;;;4.83;2.10;;;20.30;1.00;;;;;;4995531;28;20168;-81
2024/04/08 11:03:47;;;;;;;3.73;1.77;;;20.40;1.00;;;;;;4995227;28;20486;-79
2024/04/08 11:06:12;;;;;;;3.17;1.83;;;20.50;1.00;;;;;;5026808;28;20193;-80
2024/04/08 11:08:38;;;;;;;5.27;2.40;;;20.50;1.00;;;;;;4995305;28;20193;-82
2024/04/08 11:12:24;;;;;;;5.70;2.30;;;20.70;1.00;;;;;;5542870;25;20773;-80
2024/04/08 11:14:50;;;;;;;6.23;2.60;;;20.50;1.00;;;;;;5542718;25;20218;-79
2024/04/08 11:17:16;;;;;;;4.90;2.30;;;20.20;1.00;;;;;;5543716;25;20237;-79
2024/04/08 11:19:53;;;;;;;6.30;3.13;;;20.20;1.00;;;;;;5543713;25;20210;-79
2024/04/08 11:22:19;;;;;;;7.10;2.30;;;20.20;1.00;;;;;;5541418;25;20378;-80
2024/04/08 11:24:45;;;;;;;5.47;2.40;;;20.20;1.00;;;;;;5543068;25;20338;-81
2024/04/08 11:27:11;;;;;;;7.40;2.80;;;20.40;1.00;;;;;;5543251;25;20220;-80
2024/04/08 11:29:44;;;;;;;3.63;2.33;;;20.50;1.00;;;;;;5543138;25;20584;-80
2024/04/08 11:32:13;;;;;;;5.40;2.27;;;20.30;1.00;;;;;;5540977;25;20232;-83
2024/04/08 11:34:39;;;;;;;5.20;2.20;;;20.10;1.00;;;;;;5540880;25;20351;-80
2024/04/08 11:37:10;;;;;;;8.43;2.13;;;20.10;1.00;;;;;;5543534;25;20213;-80
2024/04/08 11:39:40;;;;;;;3.43;2.23;;;20.30;1.00;;;;;;5542537;25;20305;-79
2024/04/08 11:42:07;;;;;;;5.70;1.87;;;20.40;1.00;;;;;;5541360;25;20370;-80
2024/04/08 11:44:34;;;;;;;3.80;1.60;;;20.20;1.00;;;;;;5543589;25;20254;-79
2024/04/08 11:47:00;;;;;;;4.70;1.80;;;20.00;1.00;;;;;;5543301;25;20253;-78
2024/04/08 11:49:26;;;;;;;4.10;1.70;;;19.80;1.00;;;;;;5543453;25;20274;-80
2024/04/08 11:51:52;;;;;;;7.80;1.90;;;19.80;1.00;;;;;;5543155;25;20773;-80
2024/04/08 11:54:18;;;;;;;4.00;1.80;;;20.00;1.00;;;;;;5542945;25;20410;-79
2024/04/08 11:56:44;;;;;;;2.43;1.60;;;20.20;1.00;;;;;;5542820;25;20285;-80
2024/04/08 11:59:10;;;;;;;3.83;1.53;;;20.10;1.00;;;;;;5542756;25;20549;-81
2024/04/08 12:01:36;;;;;;;5.10;1.70;;;20.00;1.00;;;;;;5542741;25;20242;-80
2024/04/08 12:04:06;;;;;;;3.80;1.67;;;20.10;1.00;;;;;;5542447;25;20222;-79
2024/04/08 12:06:31;;;;;;;4.17;1.60;;;20.00;1.00;;;;;;5543126;25;20262;-80
2024/04/08 12:08:57;;;;;;;7.30;2.17;;;20.20;1.00;;;;;;5542638;25;20212;-80
2024/04/08 12:11:23;;;;;;;3.00;1.40;;;20.30;1.00;;;;;;5543125;25;20276;-83
2024/04/08 12:13:50;;;;;;;4.80;1.93;;;20.10;1.00;;;;;;5541603;25;20215;-79
2024/04/08 12:16:16;;;;;;;5.07;1.40;;;19.90;1.00;;;;;;5543206;25;20211;-80
2024/04/08 12:18:43;;;;;;;4.93;1.60;;;20.00;1.00;;;;;;5543207;25;20257;-83
2024/04/08 12:21:09;;;;;;;3.17;1.10;;;20.20;1.00;;;;;;5543013;25;20518;-83
2024/04/08 12:23:34;;;;;;;2.73;1.40;;;20.10;1.00;;;;;;5526162;25;20746;-82
2024/04/08 12:26:00;;;;;;;1.57;1.03;;;19.90;1.00;;;;;;5526135;25;20652;-80
2024/04/08 12:28:26;;;;;;;4.00;1.20;;;20.00;1.00;;;;;;5526095;25;20765;-82
2024/04/08 12:30:53;;;;;;;4.27;1.47;;;20.00;1.00;;;;;;5525975;25;20216;-80
2024/04/08 12:33:22;;;;;;;5.13;1.37;;;20.20;1.00;;;;;;5526419;25;20272;-80
2024/04/08 12:35:48;;;;;;;4.13;1.83;;;20.50;1.00;;;;;;5526296;26;20211;-79
2024/04/08 12:38:14;;;;;;;2.17;1.20;;;20.80;1.00;;;;;;5526162;25;20220;-79
2024/04/08 12:40:40;;;;;;;3.47;1.10;;;20.70;1.00;;;;;;5525962;25;20231;-81
2024/04/08 12:43:06;;;;;;;7.43;1.90;;;20.80;1.00;;;;;;5526141;25;20258;-84
2024/04/08 12:45:32;;;;;;;4.50;1.20;;;20.70;1.00;;;;;;5524296;26;20223;-80